sensor_id;sensor_type;location;lat;lon;timestamp;P1;durP1;ratioP1;P2;durP2;ratioP2
75932;SDS011;64803;52.356;5.310;2022-12-26T00:04:17;44.42;;;13.38;;
75932;SDS011;64803;52.356;5.310;2022-12-26T00:06:44;49.83;;;12.48;;
75932;SDS011;64803;52.356;5.310;2022-12-26T00:09:10;48.72;;;14.45;;
75932;SDS011;64803;52.356;5.310;2022-12-26T00:11:36;44.10;;;12.95;;
75932;SDS011;64803;52.356;5.310;2022-12-26T00:14:09;41.53;;;13.68;;
75932;SDS011;64803;52.356;5.310;2022-12-26T00:16:41;47.75;;;15.25;;
75932;SDS011;64803;52.356;5.310;2022-12-26T00:19:09;51.85;;;16.45;;
75932;SDS011;64803;52.356;5.310;2022-12-26T00:21:35;59.88;;;18.85;;
75932;SDS011;64803;52.356;5.310;2022-12-26T00:24:01;54.60;;;17.25;;
75932;SDS011;64803;52.356;5.310;2022-12-26T00:26:29;45.90;;;15.57;;
75932;SDS011;64803;52.356;5.310;2022-12-26T00:28:56;47.45;;;17.58;;
75932;SDS011;64803;52.356;5.310;2022-12-26T00:31:24;52.58;;;16.80;;
75932;SDS011;64803;52.356;5.310;2022-12-26T00:33:54;51.22;;;20.17;;
75932;SDS011;64803;52.356;5.310;2022-12-26T00:36:22;50.60;;;19.25;;
75932;SDS011;64803;52.356;5.310;2022-12-26T00:38:50;44.13;;;15.38;;
75932;SDS011;64803;52.356;5.310;2022-12-26T00:41:17;39.47;;;11.82;;
75932;SDS011;64803;52.356;5.310;2022-12-26T00:43:44;47.58;;;16.52;;
75932;SDS011;64803;52.356;5.310;2022-12-26T00:46:11;49.83;;;17.35;;
75932;SDS011;64803;52.356;5.310;2022-12-26T00:48:37;52.33;;;18.92;;
75932;SDS011;64803;52.356;5.310;2022-12-26T00:51:03;44.83;;;15.80;;
75932;SDS011;64803;52.356;5.310;2022-12-26T00:53:29;48.83;;;17.25;;
75932;SDS011;64803;52.356;5.310;2022-12-26T00:55:55;37.72;;;14.55;;
75932;SDS011;64803;52.356;5.310;2022-12-26T00:58:22;46.30;;;18.48;;
75932;SDS011;64803;52.356;5.310;2022-12-26T01:00:49;45.60;;;17.00;;
75932;SDS011;64803;52.356;5.310;2022-12-26T01:03:15;50.45;;;17.65;;
75932;SDS011;64803;52.356;5.310;2022-12-26T01:05:42;50.15;;;17.33;;
75932;SDS011;64803;52.356;5.310;2022-12-26T01:08:14;48.97;;;18.02;;
75932;SDS011;64803;52.356;5.310;2022-12-26T01:10:41;47.72;;;16.98;;
75932;SDS011;64803;52.356;5.310;2022-12-26T01:13:08;48.88;;;18.60;;
75932;SDS011;64803;52.356;5.310;2022-12-26T01:15:35;50.72;;;15.52;;
75932;SDS011;64803;52.356;5.310;2022-12-26T01:18:01;47.85;;;17.15;;
75932;SDS011;64803;52.356;5.310;2022-12-26T01:20:27;54.25;;;19.42;;
75932;SDS011;64803;52.356;5.310;2022-12-26T01:22:54;52.15;;;17.98;;
75932;SDS011;64803;52.356;5.310;2022-12-26T01:25:20;51.03;;;16.50;;
75932;SDS011;64803;52.356;5.310;2022-12-26T01:27:46;47.17;;;16.27;;
75932;SDS011;64803;52.356;5.310;2022-12-26T01:30:13;46.70;;;15.15;;
75932;SDS011;64803;52.356;5.310;2022-12-26T01:32:39;43.15;;;15.00;;
75932;SDS011;64803;52.356;5.310;2022-12-26T01:35:05;50.45;;;17.70;;
75932;SDS011;64803;52.356;5.310;2022-12-26T01:37:31;46.05;;;17.13;;
75932;SDS011;64803;52.356;5.310;2022-12-26T01:39:57;44.42;;;15.57;;
75932;SDS011;64803;52.356;5.310;2022-12-26T01:42:24;40.00;;;14.30;;
75932;SDS011;64803;52.356;5.310;2022-12-26T01:47:23;43.13;;;14.70;;
75932;SDS011;64803;52.356;5.310;2022-12-26T01:49:55;50.10;;;20.35;;
75932;SDS011;64803;52.356;5.310;2022-12-26T01:52:27;47.72;;;18.45;;
75932;SDS011;64803;52.356;5.310;2022-12-26T01:54:57;44.20;;;16.90;;
75932;SDS011;64803;52.356;5.310;2022-12-26T01:59:52;44.95;;;16.35;;
75932;SDS011;64803;52.356;5.310;2022-12-26T02:02:21;55.75;;;22.00;;
75932;SDS011;64803;52.356;5.310;2022-12-26T02:04:49;45.65;;;17.10;;
75932;SDS011;64803;52.356;5.310;2022-12-26T02:07:37;52.00;;;19.77;;
75932;SDS011;64803;52.356;5.310;2022-12-26T02:10:06;50.47;;;18.15;;
75932;SDS011;64803;52.356;5.310;2022-12-26T02:12:35;51.30;;;18.95;;
75932;SDS011;64803;52.356;5.310;2022-12-26T02:15:02;47.13;;;16.15;;
75932;SDS011;64803;52.356;5.310;2022-12-26T02:17:30;50.90;;;17.30;;
75932;SDS011;64803;52.356;5.310;2022-12-26T02:20:00;45.75;;;16.95;;
75932;SDS011;64803;52.356;5.310;2022-12-26T02:31:19;44.00;;;16.13;;
75932;SDS011;64803;52.356;5.310;2022-12-26T02:34:14;46.78;;;15.25;;
75932;SDS011;64803;52.356;5.310;2022-12-26T02:37:06;43.55;;;16.25;;
75932;SDS011;64803;52.356;5.310;2022-12-26T02:50:54;40.10;;;15.18;;
75932;SDS011;64803;52.356;5.310;2022-12-26T02:57:02;53.97;;;17.80;;
75932;SDS011;64803;52.356;5.310;2022-12-26T03:02:54;52.15;;;17.73;;
75932;SDS011;64803;52.356;5.310;2022-12-26T03:05:57;52.95;;;18.75;;
75932;SDS011;64803;52.356;5.310;2022-12-26T03:09:02;48.20;;;18.75;;
75932;SDS011;64803;52.356;5.310;2022-12-26T03:11:51;46.30;;;17.48;;
75932;SDS011;64803;52.356;5.310;2022-12-26T03:14:47;38.15;;;16.45;;
75932;SDS011;64803;52.356;5.310;2022-12-26T03:20:02;29.77;;;12.90;;
75932;SDS011;64803;52.356;5.310;2022-12-26T03:22:36;39.00;;;15.18;;
75932;SDS011;64803;52.356;5.310;2022-12-26T03:25:05;37.17;;;13.25;;
75932;SDS011;64803;52.356;5.310;2022-12-26T03:27:53;38.70;;;13.88;;
75932;SDS011;64803;52.356;5.310;2022-12-26T03:30:19;42.17;;;16.25;;
75932;SDS011;64803;52.356;5.310;2022-12-26T03:33:04;46.35;;;16.45;;
75932;SDS011;64803;52.356;5.310;2022-12-26T03:35:32;46.20;;;17.60;;
75932;SDS011;64803;52.356;5.310;2022-12-26T03:38:00;30.70;;;13.25;;
75932;SDS011;64803;52.356;5.310;2022-12-26T03:40:38;33.78;;;14.70;;
75932;SDS011;64803;52.356;5.310;2022-12-26T03:49:52;28.92;;;12.65;;
75932;SDS011;64803;52.356;5.310;2022-12-26T03:52:47;23.15;;;10.10;;
75932;SDS011;64803;52.356;5.310;2022-12-26T03:55:47;25.27;;;13.45;;
75932;SDS011;64803;52.356;5.310;2022-12-26T03:58:40;26.05;;;12.80;;
75932;SDS011;64803;52.356;5.310;2022-12-26T04:01:40;26.92;;;11.10;;
75932;SDS011;64803;52.356;5.310;2022-12-26T04:04:27;33.42;;;13.43;;
75932;SDS011;64803;52.356;5.310;2022-12-26T04:07:20;32.85;;;16.33;;
75932;SDS011;64803;52.356;5.310;2022-12-26T04:10:10;30.13;;;12.98;;
75932;SDS011;64803;52.356;5.310;2022-12-26T04:12:59;30.05;;;11.77;;
75932;SDS011;64803;52.356;5.310;2022-12-26T04:15:54;31.42;;;12.93;;
75932;SDS011;64803;52.356;5.310;2022-12-26T04:18:51;35.60;;;15.15;;
75932;SDS011;64803;52.356;5.310;2022-12-26T04:22:33;33.08;;;14.32;;
75932;SDS011;64803;52.356;5.310;2022-12-26T04:25:07;38.50;;;14.55;;
75932;SDS011;64803;52.356;5.310;2022-12-26T04:27:59;32.50;;;11.88;;
75932;SDS011;64803;52.356;5.310;2022-12-26T04:30:46;24.35;;;10.18;;
75932;SDS011;64803;52.356;5.310;2022-12-26T04:33:49;35.53;;;12.13;;
75932;SDS011;64803;52.356;5.310;2022-12-26T04:36:39;22.60;;;10.10;;
75932;SDS011;64803;52.356;5.310;2022-12-26T04:39:30;22.13;;;9.52;;
75932;SDS011;64803;52.356;5.310;2022-12-26T04:42:18;34.45;;;13.98;;
75932;SDS011;64803;52.356;5.310;2022-12-26T04:45:05;34.50;;;14.35;;
75932;SDS011;64803;52.356;5.310;2022-12-26T04:47:32;25.95;;;10.80;;
75932;SDS011;64803;52.356;5.310;2022-12-26T04:49:59;31.25;;;13.85;;
75932;SDS011;64803;52.356;5.310;2022-12-26T04:52:40;29.08;;;12.93;;
75932;SDS011;64803;52.356;5.310;2022-12-26T04:55:26;21.15;;;9.18;;
75932;SDS011;64803;52.356;5.310;2022-12-26T04:57:57;30.92;;;11.98;;
75932;SDS011;64803;52.356;5.310;2022-12-26T05:00:24;25.35;;;10.43;;
75932;SDS011;64803;52.356;5.310;2022-12-26T05:02:53;26.33;;;11.32;;
75932;SDS011;64803;52.356;5.310;2022-12-26T05:05:39;22.50;;;9.88;;
75932;SDS011;64803;52.356;5.310;2022-12-26T05:08:36;23.38;;;11.32;;
75932;SDS011;64803;52.356;5.310;2022-12-26T05:11:22;20.65;;;9.05;;
75932;SDS011;64803;52.356;5.310;2022-12-26T05:13:50;14.43;;;5.82;;
75932;SDS011;64803;52.356;5.310;2022-12-26T05:16:20;20.67;;;9.07;;
75932;SDS011;64803;52.356;5.310;2022-12-26T05:19:05;17.05;;;7.53;;
75932;SDS011;64803;52.356;5.310;2022-12-26T05:21:54;18.35;;;6.80;;
75932;SDS011;64803;52.356;5.310;2022-12-26T05:24:40;13.25;;;5.07;;
75932;SDS011;64803;52.356;5.310;2022-12-26T05:27:27;19.77;;;9.05;;
75932;SDS011;64803;52.356;5.310;2022-12-26T05:30:19;18.13;;;7.22;;
75932;SDS011;64803;52.356;5.310;2022-12-26T05:32:45;17.83;;;7.57;;
75932;SDS011;64803;52.356;5.310;2022-12-26T05:35:29;18.52;;;8.35;;
75932;SDS011;64803;52.356;5.310;2022-12-26T05:37:57;14.93;;;5.32;;
75932;SDS011;64803;52.356;5.310;2022-12-26T05:40:23;15.15;;;5.75;;
75932;SDS011;64803;52.356;5.310;2022-12-26T05:42:49;14.95;;;5.47;;
75932;SDS011;64803;52.356;5.310;2022-12-26T05:45:15;15.85;;;7.03;;
75932;SDS011;64803;52.356;5.310;2022-12-26T05:47:41;13.80;;;4.70;;
75932;SDS011;64803;52.356;5.310;2022-12-26T05:50:07;15.95;;;5.72;;
75932;SDS011;64803;52.356;5.310;2022-12-26T05:52:33;16.25;;;6.85;;
75932;SDS011;64803;52.356;5.310;2022-12-26T05:54:59;12.70;;;5.80;;
75932;SDS011;64803;52.356;5.310;2022-12-26T05:57:25;14.40;;;4.95;;
75932;SDS011;64803;52.356;5.310;2022-12-26T05:59:52;15.45;;;6.15;;
75932;SDS011;64803;52.356;5.310;2022-12-26T06:02:18;13.60;;;5.60;;
75932;SDS011;64803;52.356;5.310;2022-12-26T06:04:44;13.32;;;4.90;;
75932;SDS011;64803;52.356;5.310;2022-12-26T06:07:10;13.52;;;5.38;;
75932;SDS011;64803;52.356;5.310;2022-12-26T06:09:36;13.80;;;4.72;;
75932;SDS011;64803;52.356;5.310;2022-12-26T06:12:02;9.90;;;5.28;;
75932;SDS011;64803;52.356;5.310;2022-12-26T06:14:28;5.95;;;2.33;;
75932;SDS011;64803;52.356;5.310;2022-12-26T06:16:54;12.60;;;5.47;;
75932;SDS011;64803;52.356;5.310;2022-12-26T06:19:20;12.25;;;5.28;;
75932;SDS011;64803;52.356;5.310;2022-12-26T06:21:46;14.35;;;6.18;;
75932;SDS011;64803;52.356;5.310;2022-12-26T06:24:12;11.60;;;4.50;;
75932;SDS011;64803;52.356;5.310;2022-12-26T06:26:38;12.48;;;4.85;;
75932;SDS011;64803;52.356;5.310;2022-12-26T06:29:05;10.07;;;3.25;;
75932;SDS011;64803;52.356;5.310;2022-12-26T06:31:31;9.35;;;3.75;;
75932;SDS011;64803;52.356;5.310;2022-12-26T06:33:57;14.50;;;5.63;;
75932;SDS011;64803;52.356;5.310;2022-12-26T06:36:24;10.70;;;4.65;;
75932;SDS011;64803;52.356;5.310;2022-12-26T06:38:52;19.55;;;5.63;;
75932;SDS011;64803;52.356;5.310;2022-12-26T06:41:20;13.85;;;5.82;;
75932;SDS011;64803;52.356;5.310;2022-12-26T06:43:47;13.93;;;5.80;;
75932;SDS011;64803;52.356;5.310;2022-12-26T06:46:15;14.00;;;4.57;;
75932;SDS011;64803;52.356;5.310;2022-12-26T06:48:43;13.77;;;5.45;;
75932;SDS011;64803;52.356;5.310;2022-12-26T06:51:12;11.02;;;4.55;;
75932;SDS011;64803;52.356;5.310;2022-12-26T06:53:44;12.32;;;4.75;;
75932;SDS011;64803;52.356;5.310;2022-12-26T06:56:11;13.90;;;5.85;;
75932;SDS011;64803;52.356;5.310;2022-12-26T06:58:39;17.83;;;4.70;;
75932;SDS011;64803;52.356;5.310;2022-12-26T07:01:07;10.10;;;3.83;;
75932;SDS011;64803;52.356;5.310;2022-12-26T07:03:38;13.82;;;4.55;;
75932;SDS011;64803;52.356;5.310;2022-12-26T07:06:27;12.27;;;4.78;;
75932;SDS011;64803;52.356;5.310;2022-12-26T07:08:56;11.52;;;5.97;;
75932;SDS011;64803;52.356;5.310;2022-12-26T07:11:28;17.45;;;4.05;;
75932;SDS011;64803;52.356;5.310;2022-12-26T07:13:56;12.15;;;4.68;;
75932;SDS011;64803;52.356;5.310;2022-12-26T07:16:23;10.40;;;3.53;;
75932;SDS011;64803;52.356;5.310;2022-12-26T07:18:53;8.35;;;3.70;;
75932;SDS011;64803;52.356;5.310;2022-12-26T07:21:21;13.50;;;5.88;;
75932;SDS011;64803;52.356;5.310;2022-12-26T07:23:48;14.93;;;5.68;;
75932;SDS011;64803;52.356;5.310;2022-12-26T07:26:14;6.05;;;2.35;;
75932;SDS011;64803;52.356;5.310;2022-12-26T07:28:40;12.32;;;5.00;;
75932;SDS011;64803;52.356;5.310;2022-12-26T07:31:06;9.60;;;3.13;;
75932;SDS011;64803;52.356;5.310;2022-12-26T07:33:32;12.25;;;4.53;;
75932;SDS011;64803;52.356;5.310;2022-12-26T07:35:59;14.05;;;4.65;;
75932;SDS011;64803;52.356;5.310;2022-12-26T07:38:27;5.05;;;2.05;;
75932;SDS011;64803;52.356;5.310;2022-12-26T07:40:55;10.50;;;3.75;;
75932;SDS011;64803;52.356;5.310;2022-12-26T07:43:22;18.92;;;4.72;;
75932;SDS011;64803;52.356;5.310;2022-12-26T07:45:49;9.57;;;3.30;;
75932;SDS011;64803;52.356;5.310;2022-12-26T07:48:16;10.85;;;3.42;;
75932;SDS011;64803;52.356;5.310;2022-12-26T07:50:42;9.85;;;3.67;;
75932;SDS011;64803;52.356;5.310;2022-12-26T07:53:14;8.57;;;4.05;;
75932;SDS011;64803;52.356;5.310;2022-12-26T07:55:40;11.02;;;3.25;;
75932;SDS011;64803;52.356;5.310;2022-12-26T07:58:06;6.18;;;2.67;;
75932;SDS011;64803;52.356;5.310;2022-12-26T08:00:32;4.97;;;2.05;;
75932;SDS011;64803;52.356;5.310;2022-12-26T08:02:58;10.68;;;3.10;;
75932;SDS011;64803;52.356;5.310;2022-12-26T08:05:24;9.63;;;1.95;;
75932;SDS011;64803;52.356;5.310;2022-12-26T08:07:50;7.78;;;2.75;;
75932;SDS011;64803;52.356;5.310;2022-12-26T08:10:16;11.25;;;3.13;;
75932;SDS011;64803;52.356;5.310;2022-12-26T08:12:42;8.05;;;2.40;;
75932;SDS011;64803;52.356;5.310;2022-12-26T08:15:10;11.57;;;2.90;;
75932;SDS011;64803;52.356;5.310;2022-12-26T08:17:37;8.88;;;2.95;;
75932;SDS011;64803;52.356;5.310;2022-12-26T08:20:03;19.52;;;3.10;;
75932;SDS011;64803;52.356;5.310;2022-12-26T08:22:29;9.93;;;3.10;;
75932;SDS011;64803;52.356;5.310;2022-12-26T08:24:55;5.10;;;1.90;;
75932;SDS011;64803;52.356;5.310;2022-12-26T08:27:21;7.72;;;2.63;;
75932;SDS011;64803;52.356;5.310;2022-12-26T08:29:47;11.63;;;3.38;;
75932;SDS011;64803;52.356;5.310;2022-12-26T08:32:13;8.95;;;3.30;;
75932;SDS011;64803;52.356;5.310;2022-12-26T08:34:40;7.57;;;3.22;;
75932;SDS011;64803;52.356;5.310;2022-12-26T08:37:05;9.00;;;2.70;;
75932;SDS011;64803;52.356;5.310;2022-12-26T08:39:31;8.35;;;2.65;;
75932;SDS011;64803;52.356;5.310;2022-12-26T08:41:57;12.95;;;3.78;;
75932;SDS011;64803;52.356;5.310;2022-12-26T08:44:23;7.05;;;2.83;;
75932;SDS011;64803;52.356;5.310;2022-12-26T08:46:49;9.43;;;3.80;;
75932;SDS011;64803;52.356;5.310;2022-12-26T08:49:15;11.65;;;4.15;;
75932;SDS011;64803;52.356;5.310;2022-12-26T08:51:41;9.60;;;3.25;;
75932;SDS011;64803;52.356;5.310;2022-12-26T08:54:07;8.10;;;3.00;;
75932;SDS011;64803;52.356;5.310;2022-12-26T08:56:33;8.13;;;3.70;;
75932;SDS011;64803;52.356;5.310;2022-12-26T08:58:59;8.15;;;3.53;;
75932;SDS011;64803;52.356;5.310;2022-12-26T09:01:26;13.80;;;4.03;;
75932;SDS011;64803;52.356;5.310;2022-12-26T09:03:55;7.38;;;2.67;;
75932;SDS011;64803;52.356;5.310;2022-12-26T09:06:23;12.55;;;4.70;;
75932;SDS011;64803;52.356;5.310;2022-12-26T09:08:49;14.75;;;4.20;;
75932;SDS011;64803;52.356;5.310;2022-12-26T09:11:17;9.20;;;3.78;;
75932;SDS011;64803;52.356;5.310;2022-12-26T09:13:45;14.10;;;3.75;;
75932;SDS011;64803;52.356;5.310;2022-12-26T09:16:15;13.57;;;3.60;;
75932;SDS011;64803;52.356;5.310;2022-12-26T09:18:43;6.25;;;2.25;;
75932;SDS011;64803;52.356;5.310;2022-12-26T09:21:11;14.88;;;3.47;;
75932;SDS011;64803;52.356;5.310;2022-12-26T09:23:39;7.88;;;2.58;;
75932;SDS011;64803;52.356;5.310;2022-12-26T09:26:07;16.20;;;2.80;;
75932;SDS011;64803;52.356;5.310;2022-12-26T09:28:35;8.68;;;1.55;;
75932;SDS011;64803;52.356;5.310;2022-12-26T09:31:06;14.20;;;2.10;;
75932;SDS011;64803;52.356;5.310;2022-12-26T09:36:08;14.93;;;2.30;;
75932;SDS011;64803;52.356;5.310;2022-12-26T09:38:36;16.40;;;2.67;;
75932;SDS011;64803;52.356;5.310;2022-12-26T09:41:12;13.27;;;2.33;;
75932;SDS011;64803;52.356;5.310;2022-12-26T09:44:00;11.68;;;1.95;;
75932;SDS011;64803;52.356;5.310;2022-12-26T09:47:19;13.35;;;2.00;;
75932;SDS011;64803;52.356;5.310;2022-12-26T09:51:58;6.07;;;1.35;;
75932;SDS011;64803;52.356;5.310;2022-12-26T09:54:33;8.23;;;1.30;;
75932;SDS011;64803;52.356;5.310;2022-12-26T09:57:06;6.03;;;1.55;;
75932;SDS011;64803;52.356;5.310;2022-12-26T09:59:42;8.18;;;1.58;;
75932;SDS011;64803;52.356;5.310;2022-12-26T10:02:21;4.40;;;0.90;;
75932;SDS011;64803;52.356;5.310;2022-12-26T10:04:48;5.32;;;0.95;;
75932;SDS011;64803;52.356;5.310;2022-12-26T10:09:56;7.85;;;1.25;;
75932;SDS011;64803;52.356;5.310;2022-12-26T10:12:34;7.18;;;1.42;;
75932;SDS011;64803;52.356;5.310;2022-12-26T10:23:30;5.75;;;0.98;;
75932;SDS011;64803;52.356;5.310;2022-12-26T10:26:04;5.80;;;1.00;;
75932;SDS011;64803;52.356;5.310;2022-12-26T10:31:23;12.95;;;1.35;;
75932;SDS011;64803;52.356;5.310;2022-12-26T10:39:46;6.70;;;0.90;;
75932;SDS011;64803;52.356;5.310;2022-12-26T10:42:23;6.40;;;0.77;;
75932;SDS011;64803;52.356;5.310;2022-12-26T10:47:46;4.13;;;0.93;;
75932;SDS011;64803;52.356;5.310;2022-12-26T10:50:15;4.55;;;0.90;;
75932;SDS011;64803;52.356;5.310;2022-12-26T10:52:43;5.10;;;0.88;;
75932;SDS011;64803;52.356;5.310;2022-12-26T10:55:14;6.93;;;0.40;;
75932;SDS011;64803;52.356;5.310;2022-12-26T10:57:41;2.90;;;0.68;;
75932;SDS011;64803;52.356;5.310;2022-12-26T11:00:28;3.63;;;0.68;;
75932;SDS011;64803;52.356;5.310;2022-12-26T11:03:08;4.60;;;0.45;;
75932;SDS011;64803;52.356;5.310;2022-12-26T11:05:38;2.28;;;0.50;;
75932;SDS011;64803;52.356;5.310;2022-12-26T11:08:24;2.10;;;0.28;;
75932;SDS011;64803;52.356;5.310;2022-12-26T11:11:04;3.28;;;0.82;;
75932;SDS011;64803;52.356;5.310;2022-12-26T11:13:36;1.95;;;0.73;;
75932;SDS011;64803;52.356;5.310;2022-12-26T11:16:06;7.75;;;0.75;;
75932;SDS011;64803;52.356;5.310;2022-12-26T11:18:34;3.72;;;0.68;;
75932;SDS011;64803;52.356;5.310;2022-12-26T11:21:19;8.43;;;1.05;;
75932;SDS011;64803;52.356;5.310;2022-12-26T11:24:10;3.13;;;0.55;;
75932;SDS011;64803;52.356;5.310;2022-12-26T11:26:41;1.13;;;0.30;;
75932;SDS011;64803;52.356;5.310;2022-12-26T11:31:42;5.75;;;1.05;;
75932;SDS011;64803;52.356;5.310;2022-12-26T11:34:19;3.20;;;0.75;;
75932;SDS011;64803;52.356;5.310;2022-12-26T11:36:53;6.15;;;0.95;;
75932;SDS011;64803;52.356;5.310;2022-12-26T11:39:21;4.20;;;0.43;;
75932;SDS011;64803;52.356;5.310;2022-12-26T11:41:49;7.68;;;0.80;;
75932;SDS011;64803;52.356;5.310;2022-12-26T11:44:18;6.03;;;0.85;;
75932;SDS011;64803;52.356;5.310;2022-12-26T12:08:40;2.20;;;0.75;;
75932;SDS011;64803;52.356;5.310;2022-12-26T12:25:26;8.55;;;0.80;;
75932;SDS011;64803;52.356;5.310;2022-12-26T12:28:02;2.67;;;0.65;;
75932;SDS011;64803;52.356;5.310;2022-12-26T12:44:25;2.33;;;0.45;;
75932;SDS011;64803;52.356;5.310;2022-12-26T12:49:51;3.67;;;0.57;;
75932;SDS011;64803;52.356;5.310;2022-12-26T12:58:10;6.82;;;1.25;;
75932;SDS011;64803;52.356;5.310;2022-12-26T13:00:59;7.57;;;1.25;;
75932;SDS011;64803;52.356;5.310;2022-12-26T13:06:05;3.95;;;0.85;;
75932;SDS011;64803;52.356;5.310;2022-12-26T13:08:43;4.53;;;0.82;;
75932;SDS011;64803;52.356;5.310;2022-12-26T13:13:48;7.32;;;0.82;;
75932;SDS011;64803;52.356;5.310;2022-12-26T13:16:37;1.95;;;0.38;;
75932;SDS011;64803;52.356;5.310;2022-12-26T13:19:11;2.22;;;0.57;;
75932;SDS011;64803;52.356;5.310;2022-12-26T13:21:47;4.03;;;0.52;;
75932;SDS011;64803;52.356;5.310;2022-12-26T13:24:34;2.30;;;0.20;;
75932;SDS011;64803;52.356;5.310;2022-12-26T13:29:41;1.25;;;0.25;;
75932;SDS011;64803;52.356;5.310;2022-12-26T13:32:25;3.75;;;0.60;;
75932;SDS011;64803;52.356;5.310;2022-12-26T13:34:57;4.50;;;0.95;;
75932;SDS011;64803;52.356;5.310;2022-12-26T13:39:57;3.40;;;0.30;;
75932;SDS011;64803;52.356;5.310;2022-12-26T13:53:26;7.90;;;0.82;;
75932;SDS011;64803;52.356;5.310;2022-12-26T13:55:56;3.10;;;0.55;;
75932;SDS011;64803;52.356;5.310;2022-12-26T14:01:29;8.82;;;1.02;;
75932;SDS011;64803;52.356;5.310;2022-12-26T14:04:33;7.25;;;1.25;;
75932;SDS011;64803;52.356;5.310;2022-12-26T14:07:38;6.57;;;1.00;;
75932;SDS011;64803;52.356;5.310;2022-12-26T14:34:54;1.45;;;0.30;;
75932;SDS011;64803;52.356;5.310;2022-12-26T14:37:40;8.27;;;0.90;;
75932;SDS011;64803;52.356;5.310;2022-12-26T14:43:01;5.57;;;0.63;;
75932;SDS011;64803;52.356;5.310;2022-12-26T14:45:39;7.20;;;0.90;;
75932;SDS011;64803;52.356;5.310;2022-12-26T14:55:50;10.80;;;1.60;;
75932;SDS011;64803;52.356;5.310;2022-12-26T15:00:54;8.50;;;0.95;;
75932;SDS011;64803;52.356;5.310;2022-12-26T15:03:28;9.43;;;1.02;;
75932;SDS011;64803;52.356;5.310;2022-12-26T15:06:19;8.48;;;1.17;;
75932;SDS011;64803;52.356;5.310;2022-12-26T15:17:42;7.72;;;1.17;;
75932;SDS011;64803;52.356;5.310;2022-12-26T15:28:25;9.52;;;0.82;;
75932;SDS011;64803;52.356;5.310;2022-12-26T15:36:57;12.93;;;3.85;;
75932;SDS011;64803;52.356;5.310;2022-12-26T15:42:22;10.73;;;1.05;;
75932;SDS011;64803;52.356;5.310;2022-12-26T15:59:23;5.93;;;1.00;;
75932;SDS011;64803;52.356;5.310;2022-12-26T16:01:54;2.60;;;0.75;;
75932;SDS011;64803;52.356;5.310;2022-12-26T16:04:24;8.13;;;0.77;;
75932;SDS011;64803;52.356;5.310;2022-12-26T16:07:18;11.55;;;1.98;;
75932;SDS011;64803;52.356;5.310;2022-12-26T16:09:47;23.75;;;2.00;;
75932;SDS011;64803;52.356;5.310;2022-12-26T16:12:29;6.95;;;1.35;;
75932;SDS011;64803;52.356;5.310;2022-12-26T16:17:33;5.97;;;0.90;;
75932;SDS011;64803;52.356;5.310;2022-12-26T16:20:10;12.48;;;1.30;;
75932;SDS011;64803;52.356;5.310;2022-12-26T16:23:03;5.05;;;0.98;;
75932;SDS011;64803;52.356;5.310;2022-12-26T16:25:29;9.82;;;1.27;;
75932;SDS011;64803;52.356;5.310;2022-12-26T16:27:56;10.48;;;1.10;;
75932;SDS011;64803;52.356;5.310;2022-12-26T16:30:25;9.38;;;1.30;;
75932;SDS011;64803;52.356;5.310;2022-12-26T16:32:55;11.35;;;1.52;;
75932;SDS011;64803;52.356;5.310;2022-12-26T16:35:26;7.75;;;0.93;;
75932;SDS011;64803;52.356;5.310;2022-12-26T16:37:55;11.07;;;1.35;;
75932;SDS011;64803;52.356;5.310;2022-12-26T16:40:26;9.07;;;1.23;;
75932;SDS011;64803;52.356;5.310;2022-12-26T16:42:58;10.45;;;1.25;;
75932;SDS011;64803;52.356;5.310;2022-12-26T16:45:32;14.90;;;2.13;;
75932;SDS011;64803;52.356;5.310;2022-12-26T16:48:04;7.18;;;0.95;;
75932;SDS011;64803;52.356;5.310;2022-12-26T16:50:34;4.20;;;1.00;;
75932;SDS011;64803;52.356;5.310;2022-12-26T16:53:10;14.32;;;2.20;;
75932;SDS011;64803;52.356;5.310;2022-12-26T16:55:47;11.30;;;1.88;;
75932;SDS011;64803;52.356;5.310;2022-12-26T16:58:20;8.68;;;1.55;;
75932;SDS011;64803;52.356;5.310;2022-12-26T17:00:58;6.47;;;1.10;;
75932;SDS011;64803;52.356;5.310;2022-12-26T17:03:57;12.13;;;1.77;;
75932;SDS011;64803;52.356;5.310;2022-12-26T17:06:46;8.25;;;1.60;;
75932;SDS011;64803;52.356;5.310;2022-12-26T17:09:18;13.93;;;2.03;;
75932;SDS011;64803;52.356;5.310;2022-12-26T17:11:51;6.20;;;1.05;;
75932;SDS011;64803;52.356;5.310;2022-12-26T17:14:23;9.10;;;1.35;;
75932;SDS011;64803;52.356;5.310;2022-12-26T17:16:57;3.72;;;1.15;;
75932;SDS011;64803;52.356;5.310;2022-12-26T17:19:28;7.03;;;1.05;;
75932;SDS011;64803;52.356;5.310;2022-12-26T17:25:42;9.32;;;1.38;;
75932;SDS011;64803;52.356;5.310;2022-12-26T17:27:45;10.82;;;1.73;;
75932;SDS011;64803;52.356;5.310;2022-12-26T17:30:31;9.93;;;2.90;;
75932;SDS011;64803;52.356;5.310;2022-12-26T17:33:40;17.13;;;2.08;;
75932;SDS011;64803;52.356;5.310;2022-12-26T17:35:50;10.70;;;3.25;;
75932;SDS011;64803;52.356;5.310;2022-12-26T17:38:22;8.48;;;2.20;;
75932;SDS011;64803;52.356;5.310;2022-12-26T17:40:57;8.25;;;2.30;;
75932;SDS011;64803;52.356;5.310;2022-12-26T17:43:29;7.95;;;2.13;;
75932;SDS011;64803;52.356;5.310;2022-12-26T17:45:57;16.08;;;3.35;;
75932;SDS011;64803;52.356;5.310;2022-12-26T17:48:24;11.10;;;2.47;;
75932;SDS011;64803;52.356;5.310;2022-12-26T17:50:56;10.27;;;2.60;;
75932;SDS011;64803;52.356;5.310;2022-12-26T17:53:25;16.65;;;3.42;;
75932;SDS011;64803;52.356;5.310;2022-12-26T17:56:03;11.95;;;2.45;;
75932;SDS011;64803;52.356;5.310;2022-12-26T17:58:31;10.30;;;2.38;;
75932;SDS011;64803;52.356;5.310;2022-12-26T18:00:58;9.73;;;2.40;;
75932;SDS011;64803;52.356;5.310;2022-12-26T18:03:25;11.43;;;2.13;;
75932;SDS011;64803;52.356;5.310;2022-12-26T18:05:51;14.45;;;2.65;;
75932;SDS011;64803;52.356;5.310;2022-12-26T18:08:31;16.65;;;2.90;;
75932;SDS011;64803;52.356;5.310;2022-12-26T18:11:00;10.68;;;1.63;;
75932;SDS011;64803;52.356;5.310;2022-12-26T18:13:27;11.07;;;2.95;;
75932;SDS011;64803;52.356;5.310;2022-12-26T18:15:53;8.40;;;2.45;;
75932;SDS011;64803;52.356;5.310;2022-12-26T18:18:22;14.05;;;3.53;;
75932;SDS011;64803;52.356;5.310;2022-12-26T18:20:51;8.63;;;1.95;;
75932;SDS011;64803;52.356;5.310;2022-12-26T18:23:18;9.95;;;2.28;;
75932;SDS011;64803;52.356;5.310;2022-12-26T18:25:44;15.43;;;2.45;;
75932;SDS011;64803;52.356;5.310;2022-12-26T18:28:11;9.30;;;1.83;;
75932;SDS011;64803;52.356;5.310;2022-12-26T18:33:04;15.55;;;2.28;;
75932;SDS011;64803;52.356;5.310;2022-12-26T18:35:30;11.70;;;2.30;;
75932;SDS011;64803;52.356;5.310;2022-12-26T18:37:56;14.50;;;2.95;;
75932;SDS011;64803;52.356;5.310;2022-12-26T18:40:36;9.38;;;1.67;;
75932;SDS011;64803;52.356;5.310;2022-12-26T18:43:05;9.60;;;2.40;;
75932;SDS011;64803;52.356;5.310;2022-12-26T18:45:32;14.38;;;3.80;;
75932;SDS011;64803;52.356;5.310;2022-12-26T18:48:00;7.70;;;2.35;;
75932;SDS011;64803;52.356;5.310;2022-12-26T18:50:30;7.70;;;1.73;;
75932;SDS011;64803;52.356;5.310;2022-12-26T18:52:56;8.55;;;1.40;;
75932;SDS011;64803;52.356;5.310;2022-12-26T18:55:23;15.45;;;1.90;;
75932;SDS011;64803;52.356;5.310;2022-12-26T18:57:50;11.25;;;1.42;;
75932;SDS011;64803;52.356;5.310;2022-12-26T19:00:17;13.77;;;1.85;;
75932;SDS011;64803;52.356;5.310;2022-12-26T19:02:45;7.28;;;1.52;;
75932;SDS011;64803;52.356;5.310;2022-12-26T19:05:16;9.88;;;1.88;;
75932;SDS011;64803;52.356;5.310;2022-12-26T19:07:43;6.22;;;1.45;;
75932;SDS011;64803;52.356;5.310;2022-12-26T19:10:10;12.52;;;2.05;;
75932;SDS011;64803;52.356;5.310;2022-12-26T19:12:36;9.57;;;1.95;;